Smithfield - 24 Hour Table
Date & TimeSolar
Radiation
(W/m²)
Wind
Speed
(mph)
Wind
Direction
(degrees)
Air
Temperature
(°F)
Relative
Humidity
(%)
Precipitation
(inches)
2019/02/17 18:00 42 2.7 352 26.8 85 0.00
2019/02/17 17:00 163 2.5 157 29.8 68 0.00
2019/02/17 16:00 330 3.4 183 30.3 74 0.00
2019/02/17 15:00 368 3.0 110 30.4 71 0.00
2019/02/17 14:00 504 3.2 356 29.4 69 0.00
2019/02/17 13:00 524 4.3 333 27.7 76 0.00
2019/02/17 12:00 403 3.9 334 27.1 78 0.07
2019/02/17 11:00 303 4.9 342 25.2 82 0.04
2019/02/17 10:00 147 3.0 335 24.6 84 0.00
2019/02/17 09:00 37 2.0 33 22.5 90 0.00
2019/02/17 08:00 5 2.2 47 22.4 93 0.00
2019/02/17 07:00 0 3.0 90 21.8 94 0.00
2019/02/17 06:00 0 1.7 313 22.6 95 0.00
2019/02/17 05:00 0 1.5 69 22.1 97 0.00
2019/02/17 04:00 0 2.2 57 21.4 93 0.00
2019/02/17 03:00 0 2.6 70 22.3 92 0.00
2019/02/17 02:00 0 1.8 121 24.4 91 0.00
2019/02/17 01:00 0 2.2 115 24.7 88 0.00
2019/02/17 00:00 0 1.5 93 24.7 97 0.00
2019/02/16 23:00 0 2.1 41 24.7 98 0.00
2019/02/16 22:00 0 1.7 82 24.4 97 0.00
2019/02/16 21:00 0 2.4 163 26.0 89 0.00
2019/02/16 20:00 0 4.8 153 25.5 89 0.00
2019/02/16 19:00 0 4.8 130 26.0 89 0.00